Time;durP1;ratioP1;P1;durP2;ratioP2;P2;SDS_P1;SDS_P2;PMS_P1;PMS_P2;Temp;Humidity;BMP_temperature;BMP_pressure;BME280_temperature;BME280_humidity;BME280_pressure;Samples;Min_cycle;Max_cycle;Signal;HPM_P1;HPM_P2
2023/12/29 00:00:26;;;;;;;11.80;6.73;;;7.60;1.00;;;;;;5061639;28;20287;-78
2023/12/29 00:02:55;;;;;;;11.37;6.70;;;7.60;1.00;;;;;;5060757;28;20225;-78
2023/12/29 00:05:23;;;;;;;10.45;6.50;;;7.60;1.00;;;;;;5063981;28;20227;-77
2023/12/29 00:07:53;;;;;;;14.43;7.03;;;7.60;1.00;;;;;;5065247;28;20230;-78
2023/12/29 00:10:21;;;;;;;11.17;7.00;;;7.60;1.00;;;;;;5064740;28;20246;-78
2023/12/29 00:12:50;;;;;;;12.97;6.80;;;7.60;1.00;;;;;;5057884;28;20298;-78
2023/12/29 00:15:19;;;;;;;13.93;6.83;;;7.70;1.00;;;;;;5063510;28;20719;-77
2023/12/29 00:17:48;;;;;;;11.30;6.55;;;7.70;1.00;;;;;;5080865;28;20228;-77
2023/12/29 00:20:17;;;;;;;12.93;7.32;;;7.60;1.00;;;;;;5064169;28;20220;-79
2023/12/29 00:23:06;;;;;;;12.38;6.78;;;7.60;1.00;;;;;;5059363;28;20342;-79
2023/12/29 00:25:37;;;;;;;12.43;6.90;;;7.60;1.00;;;;;;5059825;28;20220;-80
2023/12/29 00:28:06;;;;;;;11.70;7.30;;;7.60;1.00;;;;;;5060562;28;20228;-78
2023/12/29 00:30:34;;;;;;;12.57;7.30;;;7.60;1.00;;;;;;5087033;28;20273;-75
2023/12/29 00:33:23;;;;;;;12.03;7.27;;;7.60;1.00;;;;;;5056257;28;20281;-77
2023/12/29 00:35:52;;;;;;;10.47;6.67;;;7.50;1.00;;;;;;5057945;28;20371;-76
2023/12/29 00:38:22;;;;;;;13.13;7.03;;;7.50;1.00;;;;;;5062723;28;20212;-76
2023/12/29 00:40:50;;;;;;;12.00;6.83;;;7.50;1.00;;;;;;5060940;28;20224;-76
2023/12/29 00:43:18;;;;;;;10.43;6.93;;;7.50;1.00;;;;;;5063497;28;20301;-76
2023/12/29 00:45:47;;;;;;;12.70;7.27;;;7.40;1.00;;;;;;5067097;28;20311;-76
2023/12/29 00:48:15;;;;;;;13.47;7.70;;;7.40;1.00;;;;;;5063263;28;20764;-75
2023/12/29 00:50:44;;;;;;;11.30;6.37;;;7.40;1.00;;;;;;5081690;28;20222;-77
2023/12/29 00:53:13;;;;;;;13.50;7.00;;;7.40;1.00;;;;;;5057367;28;20255;-73
2023/12/29 00:55:43;;;;;;;12.47;7.07;;;7.30;1.00;;;;;;5068324;28;20250;-74
2023/12/29 00:58:11;;;;;;;11.20;7.37;;;7.30;1.00;;;;;;5062484;28;20216;-77
2023/12/29 01:00:40;;;;;;;14.97;7.43;;;7.30;1.00;;;;;;5060807;28;20225;-78
2023/12/29 01:03:09;;;;;;;11.80;6.87;;;7.30;1.00;;;;;;5058620;28;20247;-77
2023/12/29 01:05:37;;;;;;;11.53;7.37;;;7.20;1.00;;;;;;5059495;28;20223;-77
2023/12/29 01:08:06;;;;;;;11.63;7.13;;;7.20;1.00;;;;;;5065250;28;20220;-75
2023/12/29 01:10:36;;;;;;;11.40;6.83;;;7.20;1.00;;;;;;5062193;28;20270;-75
2023/12/29 01:13:06;;;;;;;11.80;7.17;;;7.20;1.00;;;;;;5063554;28;20319;-76
2023/12/29 01:15:35;;;;;;;11.83;7.20;;;7.30;1.00;;;;;;5060734;28;20221;-76
2023/12/29 01:18:04;;;;;;;12.23;7.43;;;7.30;1.00;;;;;;5060986;28;20331;-77
2023/12/29 01:20:33;;;;;;;12.67;7.70;;;7.30;1.00;;;;;;5061291;28;20256;-76
2023/12/29 01:23:01;;;;;;;11.67;7.20;;;7.30;1.00;;;;;;5056068;28;20213;-75
2023/12/29 01:25:30;;;;;;;13.50;7.73;;;7.30;1.00;;;;;;5057860;28;20229;-77
2023/12/29 01:27:59;;;;;;;13.67;7.90;;;7.20;1.00;;;;;;5059361;28;20238;-77
2023/12/29 01:30:29;;;;;;;15.37;8.20;;;7.10;1.00;;;;;;5060815;28;20239;-77
2023/12/29 01:32:59;;;;;;;16.23;8.50;;;7.00;1.00;;;;;;5062114;28;20663;-78
2023/12/29 01:35:28;;;;;;;14.23;8.13;;;7.10;1.00;;;;;;5058785;28;20297;-78
2023/12/29 01:37:56;;;;;;;15.43;8.70;;;7.00;1.00;;;;;;5061441;28;20230;-77
2023/12/29 01:40:25;;;;;;;14.47;8.20;;;6.90;1.00;;;;;;5062266;28;20222;-78
2023/12/29 01:42:54;;;;;;;13.67;8.23;;;6.80;1.00;;;;;;5064602;28;20224;-76
2023/12/29 01:45:25;;;;;;;17.27;8.80;;;6.80;1.00;;;;;;5061950;28;20761;-78
2023/12/29 01:47:56;;;;;;;14.27;8.80;;;6.80;1.00;;;;;;5057282;28;20218;-77
2023/12/29 01:50:25;;;;;;;13.67;8.90;;;6.80;1.00;;;;;;5061692;28;20702;-76
2023/12/29 01:52:56;;;;;;;11.67;8.40;;;6.70;1.00;;;;;;5057663;28;20223;-76
2023/12/29 01:55:26;;;;;;;14.77;8.43;;;6.70;1.00;;;;;;5062496;28;20234;-76
2023/12/29 01:57:56;;;;;;;15.17;8.80;;;6.70;1.00;;;;;;5064994;28;20591;-76
2023/12/29 02:00:26;;;;;;;15.97;9.33;;;6.80;1.00;;;;;;5058510;28;20303;-76
2023/12/29 02:02:56;;;;;;;15.57;9.50;;;6.70;1.00;;;;;;5064643;28;20231;-76
2023/12/29 02:05:28;;;;;;;13.67;9.20;;;6.60;1.00;;;;;;5055685;28;20216;-75
2023/12/29 02:07:56;;;;;;;13.60;8.73;;;6.70;1.00;;;;;;5057558;28;20219;-75
2023/12/29 02:10:25;;;;;;;15.70;9.40;;;6.60;1.00;;;;;;5056828;28;20746;-75
2023/12/29 02:12:57;;;;;;;15.47;9.57;;;6.60;1.00;;;;;;5062100;28;20267;-74
2023/12/29 02:15:26;;;;;;;17.23;9.97;;;6.50;1.00;;;;;;5059636;28;20258;-75
2023/12/29 02:18:03;;;;;;;17.43;9.47;;;6.50;1.00;;;;;;5064544;28;20244;-75
2023/12/29 02:20:32;;;;;;;16.40;9.40;;;6.60;1.00;;;;;;5061043;28;20225;-78
2023/12/29 02:23:01;;;;;;;14.63;9.77;;;6.60;1.00;;;;;;5066134;28;20231;-76
2023/12/29 02:25:32;;;;;;;15.93;10.03;;;6.50;1.00;;;;;;5059802;28;20595;-74
2023/12/29 02:28:08;;;;;;;15.47;9.57;;;6.40;1.00;;;;;;5062427;28;20498;-76
2023/12/29 02:30:42;;;;;;;15.67;9.23;;;6.40;1.00;;;;;;5058106;28;20717;-75
2023/12/29 02:33:17;;;;;;;17.43;10.13;;;6.50;1.00;;;;;;5060579;28;20694;-75
2023/12/29 02:35:48;;;;;;;18.23;10.07;;;6.50;1.00;;;;;;5059271;28;20229;-76
2023/12/29 02:38:17;;;;;;;15.33;10.23;;;6.50;1.00;;;;;;5062913;28;20220;-76
2023/12/29 02:40:47;;;;;;;16.40;9.97;;;6.40;1.00;;;;;;5062725;28;20224;-75
2023/12/29 02:43:15;;;;;;;18.00;10.30;;;6.30;1.00;;;;;;5067222;28;20303;-76
2023/12/29 02:45:44;;;;;;;17.53;10.90;;;6.40;1.00;;;;;;5063020;28;20224;-75
2023/12/29 02:48:12;;;;;;;17.30;9.90;;;6.30;1.00;;;;;;5067121;28;20253;-74
2023/12/29 02:50:41;;;;;;;19.83;10.17;;;6.30;1.00;;;;;;5064312;28;20224;-74
2023/12/29 02:53:10;;;;;;;17.03;10.70;;;6.30;1.00;;;;;;5060771;28;20227;-76
2023/12/29 02:55:38;;;;;;;18.40;10.80;;;6.30;1.00;;;;;;5064194;28;20265;-76
2023/12/29 02:58:08;;;;;;;18.13;10.63;;;6.30;1.00;;;;;;5066401;28;20219;-75
2023/12/29 03:00:36;;;;;;;15.83;10.43;;;6.30;1.00;;;;;;5062769;28;20228;-74
2023/12/29 03:03:05;;;;;;;20.43;11.30;;;6.30;1.00;;;;;;5067635;28;20231;-74
2023/12/29 03:05:34;;;;;;;18.63;11.20;;;6.20;1.00;;;;;;5064791;28;20262;-75
2023/12/29 03:08:03;;;;;;;17.37;11.27;;;6.10;1.00;;;;;;5060469;28;20226;-76
2023/12/29 03:10:33;;;;;;;18.40;11.50;;;6.10;1.00;;;;;;5064150;28;20222;-75
2023/12/29 03:13:02;;;;;;;17.33;11.60;;;6.00;1.00;;;;;;5062151;28;20228;-74
2023/12/29 03:15:32;;;;;;;18.43;11.63;;;6.00;1.00;;;;;;5091787;28;20291;-76
2023/12/29 03:18:00;;;;;;;19.07;11.87;;;6.00;1.00;;;;;;5063944;28;20384;-76
2023/12/29 03:20:29;;;;;;;18.33;11.50;;;6.10;1.00;;;;;;5064170;28;20223;-77
2023/12/29 03:22:58;;;;;;;21.20;12.40;;;6.10;1.00;;;;;;5062596;28;20795;-75
2023/12/29 03:25:26;;;;;;;19.70;12.07;;;6.10;1.00;;;;;;5057490;28;20220;-75
2023/12/29 03:27:55;;;;;;;20.40;12.87;;;6.00;1.00;;;;;;5064842;28;20313;-75
2023/12/29 03:30:23;;;;;;;20.73;12.60;;;5.90;1.00;;;;;;5064279;28;20228;-72
2023/12/29 03:32:53;;;;;;;22.67;12.77;;;5.90;1.00;;;;;;5065734;28;20251;-73
2023/12/29 03:35:21;;;;;;;21.07;12.60;;;5.80;1.00;;;;;;5063244;28;20357;-74
2023/12/29 03:37:50;;;;;;;22.57;12.37;;;5.80;1.00;;;;;;5062932;28;20319;-72
2023/12/29 03:40:18;;;;;;;22.17;13.33;;;5.70;1.00;;;;;;5054232;28;20741;-73
2023/12/29 03:42:47;;;;;;;23.97;13.40;;;5.80;1.00;;;;;;5063466;28;20671;-72
2023/12/29 03:45:16;;;;;;;21.87;13.53;;;5.70;1.00;;;;;;5064578;28;20221;-73
2023/12/29 03:47:44;;;;;;;23.90;12.93;;;5.70;1.00;;;;;;5061298;28;20255;-73
2023/12/29 03:50:14;;;;;;;25.07;13.43;;;5.70;1.00;;;;;;5067218;28;20219;-73
2023/12/29 03:52:43;;;;;;;22.27;13.20;;;5.60;1.00;;;;;;5059830;28;20236;-74
2023/12/29 03:55:12;;;;;;;21.07;13.80;;;5.60;1.00;;;;;;5061467;28;20252;-73
2023/12/29 03:57:40;;;;;;;23.33;13.63;;;5.60;1.00;;;;;;5062856;28;20228;-74
2023/12/29 04:00:13;;;;;;;22.50;13.60;;;5.60;1.00;;;;;;5060282;28;20240;-74
2023/12/29 04:02:41;;;;;;;23.77;13.43;;;5.60;1.00;;;;;;5061815;28;20232;-75
2023/12/29 04:05:10;;;;;;;24.00;13.60;;;5.60;1.00;;;;;;5063700;28;20300;-75
2023/12/29 04:07:41;;;;;;;21.80;13.80;;;5.60;1.00;;;;;;5058830;28;20738;-74
2023/12/29 04:10:10;;;;;;;20.83;12.90;;;5.60;1.00;;;;;;5064169;28;20216;-74
2023/12/29 04:12:39;;;;;;;23.47;13.53;;;5.60;1.00;;;;;;5059473;28;20534;-72
2023/12/29 04:15:08;;;;;;;19.43;12.20;;;5.70;1.00;;;;;;5063900;28;20244;-76
2023/12/29 04:17:37;;;;;;;18.70;11.77;;;5.70;1.00;;;;;;5062265;28;20295;-75
2023/12/29 04:20:06;;;;;;;21.40;13.50;;;5.70;1.00;;;;;;5059136;28;20239;-75
2023/12/29 04:22:35;;;;;;;19.90;12.30;;;5.70;1.00;;;;;;5064500;28;20235;-73
2023/12/29 04:25:05;;;;;;;21.93;13.33;;;5.60;1.00;;;;;;5055304;28;20220;-76
2023/12/29 04:27:37;;;;;;;20.63;13.23;;;5.70;1.00;;;;;;5065897;28;20226;-74
2023/12/29 04:30:06;;;;;;;21.57;13.37;;;5.70;1.00;;;;;;5066594;28;20220;-74
2023/12/29 04:32:35;;;;;;;20.90;12.80;;;5.60;1.00;;;;;;5080080;28;20787;-76
2023/12/29 04:35:04;;;;;;;21.30;13.33;;;5.60;1.00;;;;;;5061342;28;20236;-75
2023/12/29 04:37:32;;;;;;;23.30;13.43;;;5.70;1.00;;;;;;5063916;28;20220;-76
2023/12/29 04:40:00;;;;;;;24.80;13.77;;;5.70;1.00;;;;;;5062580;28;20239;-77
2023/12/29 04:42:34;;;;;;;23.60;13.87;;;5.60;1.00;;;;;;5055289;28;20707;-76
2023/12/29 04:45:03;;;;;;;22.67;13.97;;;5.70;1.00;;;;;;5062093;28;20726;-76
2023/12/29 04:47:32;;;;;;;22.17;12.90;;;5.70;1.00;;;;;;5059809;28;20313;-77
2023/12/29 04:50:00;;;;;;;20.77;13.27;;;5.70;1.00;;;;;;5058187;28;20227;-77
2023/12/29 04:52:29;;;;;;;21.87;13.10;;;5.70;1.00;;;;;;5062042;28;20238;-75
2023/12/29 04:54:58;;;;;;;20.67;13.37;;;5.60;1.00;;;;;;5062421;28;20230;-74
2023/12/29 04:57:26;;;;;;;19.43;13.33;;;5.60;1.00;;;;;;5064317;28;20227;-76
2023/12/29 04:59:56;;;;;;;24.27;14.03;;;5.70;1.00;;;;;;5062686;28;20233;-77
2023/12/29 05:02:24;;;;;;;21.30;13.63;;;5.70;1.00;;;;;;5060935;28;20214;-74
2023/12/29 05:04:53;;;;;;;20.73;12.63;;;5.70;1.00;;;;;;5061871;28;20913;-76
2023/12/29 05:07:22;;;;;;;27.47;13.37;;;5.80;1.00;;;;;;5065203;28;20303;-74
2023/12/29 05:09:50;;;;;;;21.87;12.67;;;5.80;1.00;;;;;;5062073;28;20228;-76
2023/12/29 05:12:19;;;;;;;20.60;12.63;;;5.90;1.00;;;;;;5053132;28;20522;-76
2023/12/29 05:14:47;;;;;;;19.70;12.57;;;6.00;1.00;;;;;;5059529;28;20234;-75
2023/12/29 05:17:17;;;;;;;21.30;12.77;;;6.00;1.00;;;;;;5076761;28;20237;-76
2023/12/29 05:19:45;;;;;;;19.80;12.63;;;6.00;1.00;;;;;;5057980;28;20258;-78
2023/12/29 05:22:17;;;;;;;22.57;12.80;;;6.00;1.00;;;;;;5055789;28;20216;-77
2023/12/29 05:24:46;;;;;;;19.70;12.83;;;6.10;1.00;;;;;;5057808;28;20334;-78
2023/12/29 05:27:14;;;;;;;18.90;12.27;;;6.10;1.00;;;;;;5061156;28;20227;-75
2023/12/29 05:29:43;;;;;;;20.57;12.27;;;6.10;1.00;;;;;;5057473;28;20220;-75
2023/12/29 05:32:11;;;;;;;17.40;12.00;;;6.10;1.00;;;;;;5064964;28;20224;-75
2023/12/29 05:34:41;;;;;;;20.33;11.47;;;6.20;1.00;;;;;;5072064;28;20837;-77
2023/12/29 05:37:10;;;;;;;20.37;12.07;;;6.20;1.00;;;;;;5046027;28;20233;-74
2023/12/29 05:39:38;;;;;;;18.67;11.17;;;6.30;1.00;;;;;;5044374;28;20252;-74
2023/12/29 05:42:06;;;;;;;18.37;11.07;;;6.30;1.00;;;;;;5044100;28;20225;-76
2023/12/29 05:44:37;;;;;;;15.33;10.87;;;6.40;1.00;;;;;;5046251;28;20221;-75
2023/12/29 05:47:06;;;;;;;16.00;11.20;;;6.40;1.00;;;;;;5076473;28;20221;-76
2023/12/29 05:49:38;;;;;;;15.73;9.97;;;6.40;1.00;;;;;;5061413;28;20311;-76
2023/12/29 05:52:09;;;;;;;19.93;10.70;;;6.50;1.00;;;;;;5078940;28;20227;-77
2023/12/29 05:54:38;;;;;;;16.40;10.60;;;6.50;1.00;;;;;;5061621;28;20778;-75
2023/12/29 05:57:06;;;;;;;21.10;10.57;;;6.50;1.00;;;;;;5060059;28;20231;-76
2023/12/29 05:59:35;;;;;;;15.13;9.67;;;6.50;1.00;;;;;;5073262;28;20228;-76
2023/12/29 06:02:03;;;;;;;16.40;10.80;;;6.50;1.00;;;;;;5061347;28;20299;-77
2023/12/29 06:04:32;;;;;;;18.97;10.27;;;6.60;1.00;;;;;;5062063;28;20889;-76
2023/12/29 06:07:00;;;;;;;15.77;10.53;;;6.60;1.00;;;;;;5060056;28;20212;-75
2023/12/29 06:09:33;;;;;;;13.30;9.87;;;6.60;1.00;;;;;;5058119;28;20694;-75
2023/12/29 06:12:02;;;;;;;17.13;10.10;;;6.60;1.00;;;;;;5056201;28;20269;-74
2023/12/29 06:14:30;;;;;;;14.60;11.03;;;6.70;1.00;;;;;;5064610;28;20223;-75
2023/12/29 06:16:59;;;;;;;16.10;10.27;;;6.70;1.00;;;;;;5066796;28;20220;-75
2023/12/29 06:19:28;;;;;;;16.37;9.60;;;6.80;1.00;;;;;;5062428;28;20235;-74
2023/12/29 06:21:56;;;;;;;16.77;9.60;;;6.70;1.00;;;;;;5062873;28;20226;-74
2023/12/29 06:24:25;;;;;;;15.67;10.13;;;6.70;1.00;;;;;;5077746;28;20247;-75
2023/12/29 06:26:55;;;;;;;18.40;10.03;;;6.80;1.00;;;;;;5062713;28;20249;-75
2023/12/29 06:29:23;;;;;;;16.17;9.73;;;6.80;1.00;;;;;;5063247;28;20253;-76
2023/12/29 06:31:52;;;;;;;18.20;10.27;;;6.90;1.00;;;;;;5066549;28;20227;-77
2023/12/29 06:34:21;;;;;;;13.77;9.37;;;6.90;1.00;;;;;;5065062;28;20227;-77
2023/12/29 06:36:49;;;;;;;15.40;9.27;;;6.80;1.00;;;;;;5075549;28;20604;-76
2023/12/29 06:39:18;;;;;;;15.57;9.20;;;6.90;1.00;;;;;;5064553;28;20230;-76
2023/12/29 06:41:47;;;;;;;16.03;10.00;;;6.90;1.00;;;;;;5067965;28;20228;-78
2023/12/29 06:44:16;;;;;;;17.10;10.07;;;6.90;1.00;;;;;;5066076;28;20224;-76
2023/12/29 06:46:45;;;;;;;16.67;10.60;;;6.90;1.00;;;;;;5061019;28;20271;-77
2023/12/29 06:49:14;;;;;;;16.50;9.97;;;6.80;1.00;;;;;;5064708;28;20230;-77
2023/12/29 06:51:42;;;;;;;19.60;11.33;;;6.80;1.00;;;;;;5062658;28;20327;-76
2023/12/29 06:54:11;;;;;;;16.13;10.30;;;6.80;1.00;;;;;;5066279;28;20240;-75
2023/12/29 06:56:39;;;;;;;16.20;10.77;;;6.80;1.00;;;;;;5059150;28;20231;-76
2023/12/29 06:59:08;;;;;;;17.60;10.17;;;6.80;1.00;;;;;;5066789;28;20248;-77
2023/12/29 07:01:41;;;;;;;17.47;10.57;;;6.80;1.00;;;;;;5062163;28;20307;-77
2023/12/29 07:04:10;;;;;;;15.73;10.97;;;6.70;1.00;;;;;;5091174;28;20325;-76
2023/12/29 07:06:39;;;;;;;19.10;11.57;;;6.70;1.00;;;;;;5054356;28;20584;-76
2023/12/29 07:09:09;;;;;;;15.77;10.53;;;6.70;1.00;;;;;;5062873;28;20750;-75
2023/12/29 07:11:38;;;;;;;19.20;11.07;;;6.60;1.00;;;;;;5060085;28;20239;-75
2023/12/29 07:14:06;;;;;;;18.03;11.47;;;6.60;1.00;;;;;;5060599;28;20312;-74
2023/12/29 07:16:35;;;;;;;18.37;11.93;;;6.60;1.00;;;;;;5060951;28;20224;-76
2023/12/29 07:19:04;;;;;;;17.43;11.53;;;6.60;1.00;;;;;;5065299;28;20312;-76
2023/12/29 07:21:34;;;;;;;16.70;11.57;;;6.60;1.00;;;;;;5064839;28;20236;-76
2023/12/29 07:24:02;;;;;;;17.10;11.60;;;6.60;1.00;;;;;;5062179;28;20224;-77
2023/12/29 07:26:33;;;;;;;16.10;11.10;;;6.60;1.00;;;;;;5063100;28;20231;-77
2023/12/29 07:29:03;;;;;;;19.70;11.87;;;6.70;1.00;;;;;;5062650;28;20208;-75
2023/12/29 07:31:33;;;;;;;17.57;12.00;;;6.60;1.00;;;;;;5061572;28;20362;-75
2023/12/29 07:34:01;;;;;;;22.40;13.10;;;6.60;1.00;;;;;;5063973;28;20226;-74
2023/12/29 07:36:32;;;;;;;18.63;11.90;;;6.70;1.00;;;;;;5062142;28;20212;-74
2023/12/29 07:39:01;;;;;;;21.40;11.93;;;6.70;1.00;;;;;;5064414;28;20230;-72
2023/12/29 07:41:29;;;;;;;18.10;12.17;;;6.80;1.00;;;;;;5062068;28;20212;-76
2023/12/29 07:43:58;;;;;;;17.80;12.13;;;6.80;1.00;;;;;;5063215;28;20222;-78
2023/12/29 07:46:26;;;;;;;19.23;11.73;;;6.90;1.00;;;;;;5059874;28;20916;-76
2023/12/29 07:48:55;;;;;;;19.40;12.17;;;6.90;1.00;;;;;;5060910;28;20260;-78
2023/12/29 07:51:23;;;;;;;18.37;11.97;;;6.80;1.00;;;;;;5062890;28;20857;-77
2023/12/29 07:53:53;;;;;;;20.47;12.43;;;6.80;1.00;;;;;;5065733;28;20227;-74
2023/12/29 07:56:22;;;;;;;20.27;12.43;;;6.80;1.00;;;;;;5066958;28;20220;-71
2023/12/29 07:58:50;;;;;;;17.37;11.33;;;6.90;1.00;;;;;;5068091;28;20216;-73
2023/12/29 08:01:19;;;;;;;17.90;12.60;;;6.90;1.00;;;;;;5064315;28;20216;-72
2023/12/29 08:03:47;;;;;;;17.80;11.47;;;7.00;1.00;;;;;;5059606;28;20232;-73
2023/12/29 08:06:16;;;;;;;18.60;11.77;;;7.00;1.00;;;;;;5062532;28;20220;-73
2023/12/29 08:08:44;;;;;;;18.80;11.20;;;7.00;1.00;;;;;;5061872;28;20250;-74
2023/12/29 08:11:18;;;;;;;19.53;11.90;;;7.00;1.00;;;;;;5054403;28;20217;-73
2023/12/29 08:13:48;;;;;;;18.97;11.73;;;6.90;1.00;;;;;;5053250;28;20362;-74
2023/12/29 08:16:18;;;;;;;18.77;12.37;;;7.00;1.00;;;;;;5063660;28;20271;-74
2023/12/29 08:18:47;;;;;;;21.23;12.17;;;7.00;1.00;;;;;;5057005;28;20222;-74
2023/12/29 08:21:19;;;;;;;17.20;11.23;;;7.00;1.00;;;;;;5060107;28;20329;-73
2023/12/29 08:23:48;;;;;;;17.97;12.03;;;6.90;1.00;;;;;;5060784;28;20334;-75
2023/12/29 08:26:18;;;;;;;17.47;11.60;;;7.00;1.00;;;;;;5063866;28;20336;-76
2023/12/29 08:28:47;;;;;;;15.80;11.27;;;7.00;1.00;;;;;;5060282;28;20243;-79
2023/12/29 08:31:16;;;;;;;17.43;12.10;;;7.00;1.00;;;;;;5060969;28;21062;-78
2023/12/29 08:33:45;;;;;;;15.97;11.37;;;6.90;1.00;;;;;;5064884;28;20216;-75
2023/12/29 08:36:14;;;;;;;20.23;11.73;;;6.90;1.00;;;;;;5060355;28;20309;-79
2023/12/29 08:38:42;;;;;;;19.07;11.03;;;7.00;1.00;;;;;;5060399;28;20231;-79
2023/12/29 08:41:14;;;;;;;18.87;11.57;;;7.00;1.00;;;;;;5058095;28;20246;-73
2023/12/29 08:43:44;;;;;;;16.23;11.07;;;7.00;1.00;;;;;;5065066;28;20222;-81
2023/12/29 08:46:13;;;;;;;19.07;11.20;;;7.00;1.00;;;;;;5060227;28;20227;-76
2023/12/29 08:48:41;;;;;;;14.03;9.87;;;7.00;1.00;;;;;;5064221;28;20228;-75
2023/12/29 08:51:10;;;;;;;16.43;10.27;;;7.00;1.00;;;;;;5060105;28;20229;-75
2023/12/29 08:53:38;;;;;;;15.50;10.60;;;7.00;1.00;;;;;;5057960;28;20760;-76
2023/12/29 08:56:07;;;;;;;18.00;11.10;;;7.10;1.00;;;;;;5055900;28;20232;-76
2023/12/29 08:58:36;;;;;;;15.97;10.53;;;7.20;1.00;;;;;;5060046;28;20244;-75
2023/12/29 09:01:06;;;;;;;18.27;11.00;;;7.20;1.00;;;;;;5057152;28;20212;-76
2023/12/29 09:03:35;;;;;;;16.40;10.20;;;7.20;1.00;;;;;;5058425;28;20224;-75
2023/12/29 09:06:05;;;;;;;18.13;10.73;;;7.30;1.00;;;;;;5057769;28;20296;-80
2023/12/29 09:08:34;;;;;;;16.87;10.70;;;7.30;1.00;;;;;;5059571;28;20224;-79
2023/12/29 09:11:03;;;;;;;15.77;11.20;;;7.30;1.00;;;;;;5056622;28;20235;-80
2023/12/29 09:13:31;;;;;;;17.67;10.97;;;7.40;1.00;;;;;;5056638;28;20228;-79
2023/12/29 09:16:00;;;;;;;18.03;10.17;;;7.40;1.00;;;;;;5053807;28;20263;-79
2023/12/29 09:18:30;;;;;;;19.10;11.27;;;7.50;1.00;;;;;;5061582;28;20331;-79
2023/12/29 09:21:01;;;;;;;16.63;10.80;;;7.60;1.00;;;;;;5062778;28;20223;-77
2023/12/29 09:23:29;;;;;;;17.97;10.17;;;7.60;1.00;;;;;;5056083;28;20938;-77
2023/12/29 09:25:58;;;;;;;16.10;10.40;;;7.60;1.00;;;;;;5043555;28;20219;-76
2023/12/29 09:28:26;;;;;;;15.67;10.47;;;7.70;1.00;;;;;;5055703;28;20224;-78
2023/12/29 09:30:55;;;;;;;14.30;10.13;;;7.70;1.00;;;;;;5057609;28;20220;-77
2023/12/29 09:33:24;;;;;;;15.17;9.90;;;7.70;1.00;;;;;;5061971;28;20310;-76
2023/12/29 09:35:54;;;;;;;15.27;9.60;;;7.80;1.00;;;;;;5062478;28;20278;-77
2023/12/29 09:38:23;;;;;;;14.83;9.10;;;7.80;1.00;;;;;;5055767;28;20304;-75
2023/12/29 09:40:52;;;;;;;16.97;10.30;;;7.80;1.00;;;;;;5054734;28;20236;-75
2023/12/29 09:43:21;;;;;;;13.70;9.30;;;7.80;1.00;;;;;;5056102;28;20225;-75
2023/12/29 09:45:52;;;;;;;12.63;8.40;;;7.90;1.00;;;;;;5056687;28;20316;-76
2023/12/29 09:48:26;;;;;;;16.93;8.30;;;8.00;1.00;;;;;;5051726;28;20327;-76
2023/12/29 09:50:57;;;;;;;14.02;7.82;;;8.20;1.00;;;;;;5058694;28;20750;-77
2023/12/29 09:53:27;;;;;;;9.43;6.27;;;8.30;1.00;;;;;;5060008;28;20224;-81
2023/12/29 09:55:58;;;;;;;10.73;6.03;;;8.50;1.00;;;;;;5059599;28;20238;-78
2023/12/29 09:58:27;;;;;;;8.23;5.67;;;8.70;1.00;;;;;;5061182;28;20603;-77
2023/12/29 10:00:56;;;;;;;9.80;6.17;;;8.80;1.00;;;;;;5060332;28;20228;-76
2023/12/29 10:03:25;;;;;;;10.02;5.93;;;8.90;1.00;;;;;;5057214;28;20225;-76
2023/12/29 10:06:00;;;;;;;6.45;4.80;;;9.00;1.00;;;;;;5062508;28;20220;-77
2023/12/29 10:08:30;;;;;;;7.97;5.23;;;9.00;1.00;;;;;;5061396;28;20882;-76
2023/12/29 10:11:01;;;;;;;8.80;5.00;;;9.00;1.00;;;;;;5058290;28;20251;-75
2023/12/29 10:13:32;;;;;;;10.75;5.78;;;9.20;1.00;;;;;;5055208;28;20912;-75
2023/12/29 10:16:07;;;;;;;7.18;5.13;;;9.30;1.00;;;;;;5059215;28;20247;-76
2023/12/29 10:18:43;;;;;;;7.85;5.05;;;9.30;1.00;;;;;;5062107;28;20782;-75
2023/12/29 10:21:23;;;;;;;7.75;5.13;;;9.40;1.00;;;;;;5060181;28;20239;-76
2023/12/29 10:23:59;;;;;;;8.05;4.90;;;9.40;1.00;;;;;;5046311;28;20229;-77
2023/12/29 10:26:28;;;;;;;5.90;4.10;;;9.50;1.00;;;;;;5048946;28;20924;-77
2023/12/29 10:28:58;;;;;;;8.45;4.45;;;9.60;1.00;;;;;;5045363;28;20315;-77
2023/12/29 10:31:26;;;;;;;7.47;4.30;;;9.60;1.00;;;;;;5037346;28;20233;-76
2023/12/29 10:34:18;;;;;;;9.10;5.38;;;9.60;1.00;;;;;;5037920;28;20332;-76
2023/12/29 10:36:51;;;;;;;8.93;4.80;;;9.60;1.00;;;;;;5067746;28;20227;-77
2023/12/29 10:39:20;;;;;;;8.23;4.65;;;9.60;1.00;;;;;;5044866;28;20233;-78
2023/12/29 10:41:49;;;;;;;7.10;4.00;;;9.70;1.00;;;;;;5056094;28;20228;-80
2023/12/29 10:44:18;;;;;;;8.25;4.40;;;9.60;1.00;;;;;;5054472;28;20216;-79
2023/12/29 10:46:46;;;;;;;6.75;4.80;;;9.70;1.00;;;;;;5055596;28;20239;-80
2023/12/29 10:49:15;;;;;;;6.50;4.68;;;9.70;1.00;;;;;;5066636;28;20227;-80
2023/12/29 10:51:44;;;;;;;6.05;4.28;;;9.80;1.00;;;;;;5062396;28;20227;-80
2023/12/29 10:54:22;;;;;;;6.75;4.43;;;9.80;1.00;;;;;;5061365;28;20238;-81
2023/12/29 10:57:02;;;;;;;6.88;4.95;;;9.70;1.00;;;;;;5055295;28;20235;-79
2023/12/29 10:59:31;;;;;;;6.05;4.43;;;9.90;1.00;;;;;;5057285;28;20374;-76
2023/12/29 11:02:03;;;;;;;10.10;4.65;;;9.90;1.00;;;;;;5062338;28;20212;-78
2023/12/29 11:04:34;;;;;;;6.75;4.72;;;9.90;1.00;;;;;;5061727;28;20224;-73
2023/12/29 11:07:03;;;;;;;7.43;4.72;;;10.00;1.00;;;;;;5047572;28;20221;-79
2023/12/29 11:21:39;;;;;;;5.72;4.22;;;10.10;1.00;;;;;;5075561;27;20584;-71
2023/12/29 11:24:08;;;;;;;8.07;4.80;;;10.40;1.00;;;;;;5078610;28;20738;-72
2023/12/29 11:26:38;;;;;;;5.55;4.28;;;10.40;1.00;;;;;;5081583;28;20207;-72
2023/12/29 11:29:08;;;;;;;9.93;4.57;;;10.50;1.00;;;;;;5077584;28;20306;-72
2023/12/29 11:31:37;;;;;;;8.10;4.63;;;10.50;1.00;;;;;;5079802;27;20219;-71
2023/12/29 11:34:11;;;;;;;7.50;4.57;;;10.60;1.00;;;;;;5079383;28;20310;-70
2023/12/29 11:36:46;;;;;;;7.78;4.60;;;10.50;1.00;;;;;;5084758;28;20229;-72
2023/12/29 11:39:21;;;;;;;5.55;4.43;;;10.50;1.00;;;;;;5075957;28;20287;-71
2023/12/29 11:42:03;;;;;;;7.28;4.43;;;10.50;1.00;;;;;;5092707;28;20222;-71
2023/12/29 11:44:33;;;;;;;6.10;4.35;;;10.50;1.00;;;;;;5076862;27;20233;-71
2023/12/29 11:47:02;;;;;;;8.27;4.75;;;10.50;1.00;;;;;;5077420;28;20224;-71
2023/12/29 11:50:00;;;;;;;8.85;5.10;;;10.50;1.00;;;;;;5070599;27;20231;-71
2023/12/29 11:52:46;;;;;;;8.57;4.55;;;10.40;1.00;;;;;;5079543;27;20242;-71
2023/12/29 11:55:17;;;;;;;9.10;4.45;;;10.30;1.00;;;;;;5099908;28;20222;-71
2023/12/29 11:57:46;;;;;;;9.07;4.65;;;10.40;1.00;;;;;;5086822;28;20319;-72
2023/12/29 12:00:16;;;;;;;7.25;4.07;;;10.40;1.00;;;;;;5071747;28;20252;-72
2023/12/29 12:02:45;;;;;;;10.15;4.78;;;10.50;1.00;;;;;;5076300;28;20243;-72
2023/12/29 12:05:33;;;;;;;7.20;4.25;;;10.50;1.00;;;;;;5080243;28;20669;-71
2023/12/29 12:08:03;;;;;;;6.57;4.60;;;10.50;1.00;;;;;;5079430;28;20257;-72
2023/12/29 12:10:33;;;;;;;8.15;4.72;;;10.50;1.00;;;;;;5075256;28;20453;-72
2023/12/29 12:13:02;;;;;;;6.60;4.50;;;10.60;1.00;;;;;;5074483;28;20286;-72
2023/12/29 12:15:35;;;;;;;9.15;4.82;;;10.50;1.00;;;;;;5074479;28;20230;-72
2023/12/29 12:18:07;;;;;;;7.30;5.05;;;10.50;1.00;;;;;;5070570;28;20231;-73
2023/12/29 12:20:36;;;;;;;10.27;4.50;;;10.50;1.00;;;;;;5072502;28;20228;-70
2023/12/29 12:23:12;;;;;;;8.30;4.90;;;10.40;1.00;;;;;;5063085;28;20236;-70
2023/12/29 12:25:41;;;;;;;9.18;4.90;;;10.40;1.00;;;;;;5056845;28;20319;-70
2023/12/29 12:28:11;;;;;;;7.90;4.57;;;10.40;1.00;;;;;;5078676;28;20227;-69
2023/12/29 12:30:39;;;;;;;6.63;4.45;;;10.40;1.00;;;;;;5078613;28;20228;-70
2023/12/29 12:33:11;;;;;;;7.13;4.75;;;10.40;1.00;;;;;;5084322;28;20227;-71
2023/12/29 12:35:40;;;;;;;7.38;4.43;;;10.40;1.00;;;;;;5066259;28;20254;-70
2023/12/29 12:38:11;;;;;;;6.65;4.55;;;10.40;1.00;;;;;;5075448;28;21099;-71
2023/12/29 12:40:39;;;;;;;7.70;4.70;;;10.40;1.00;;;;;;5069566;28;20213;-71
2023/12/29 12:43:08;;;;;;;6.68;4.15;;;10.40;1.00;;;;;;5075662;28;20239;-71
2023/12/29 12:45:43;;;;;;;6.47;4.53;;;10.50;1.00;;;;;;5060291;28;20244;-71
2023/12/29 12:48:19;;;;;;;7.07;4.40;;;10.50;1.00;;;;;;5059399;28;20966;-71
2023/12/29 12:50:49;;;;;;;6.78;4.70;;;10.50;1.00;;;;;;5072946;28;20224;-71
2023/12/29 12:53:20;;;;;;;9.27;4.80;;;10.60;1.00;;;;;;5061617;28;20236;-74
2023/12/29 12:55:50;;;;;;;11.40;4.72;;;10.60;1.00;;;;;;5082241;28;20246;-71
2023/12/29 12:58:20;;;;;;;8.63;4.70;;;10.60;1.00;;;;;;5068763;28;20221;-69
2023/12/29 13:00:50;;;;;;;6.78;4.85;;;10.60;1.00;;;;;;5085488;28;20285;-70
2023/12/29 13:03:23;;;;;;;9.52;4.43;;;10.60;1.00;;;;;;5074140;28;20220;-70
2023/12/29 13:05:52;;;;;;;7.40;4.45;;;10.60;1.00;;;;;;5071406;28;20223;-70
2023/12/29 13:08:22;;;;;;;7.28;4.90;;;10.60;1.00;;;;;;5077655;28;20224;-70
2023/12/29 13:11:02;;;;;;;8.05;4.93;;;10.60;1.00;;;;;;5082098;28;20247;-70
2023/12/29 13:13:38;;;;;;;8.82;5.18;;;10.60;1.00;;;;;;5070974;28;20389;-71
2023/12/29 13:16:07;;;;;;;10.70;5.10;;;10.70;1.00;;;;;;5077724;28;20325;-71
2023/12/29 13:18:36;;;;;;;8.07;4.88;;;10.60;1.00;;;;;;5066463;28;20722;-71